Time;durP1;ratioP1;P1;durP2;ratioP2;P2;SDS_P1;SDS_P2;PMS_P1;PMS_P2;Temp;Humidity;BMP_temperature;BMP_pressure;BME280_temperature;BME280_humidity;BME280_pressure;Samples;Min_cycle;Max_cycle;Signal;HPM_P1;HPM_P2
2023/02/04 00:01:05;;;;;;;3.08;0.43;;;;;;;0.68;99.63;102027.13;4950511;28;20149;-81
2023/02/04 00:03:31;;;;;;;9.63;1.17;;;2.50;99.90;;;0.67;100.00;102027.97;4961724;28;20026;-82
2023/02/04 00:05:57;;;;;;;5.97;0.90;;;2.40;99.90;;;0.60;100.00;102043.44;4944415;28;20546;-81
2023/02/04 00:08:29;;;;;;;7.13;1.30;;;2.40;99.90;;;0.65;100.00;102042.63;4911672;28;20314;-82
2023/02/04 00:10:54;;;;;;;3.30;0.45;;;2.40;99.90;;;0.57;100.00;102045.13;4923278;28;20092;-80
2023/02/04 00:13:23;;;;;;;5.80;0.88;;;2.40;99.90;;;0.61;100.00;102058.16;4911044;28;20140;-82
2023/02/04 00:15:49;;;;;;;9.73;1.10;;;2.40;99.90;;;0.63;100.00;102054.69;4958249;23;20361;-82
2023/02/04 00:18:23;;;;;;;3.20;0.50;;;2.40;99.90;;;0.67;100.00;102067.75;4926931;28;20125;-80
2023/02/04 00:20:52;;;;;;;10.63;0.70;;;2.40;99.90;;;0.70;100.00;102074.69;4931500;28;20157;-84
2023/02/04 00:23:18;;;;;;;7.78;1.20;;;2.50;99.90;;;0.76;100.00;102082.56;4949594;28;20120;-81
2023/02/04 00:25:49;;;;;;;7.55;0.98;;;;;;;0.76;100.00;102091.22;4925177;28;20128;-81
2023/02/04 00:28:15;;;;;;;6.20;0.88;;;2.50;99.90;;;0.80;100.00;102099.94;4944829;28;20045;-82
2023/02/04 00:30:41;;;;;;;7.45;0.55;;;3.90;99.90;;;0.75;100.00;102097.22;4901743;28;20043;-81
2023/02/04 00:33:07;;;;;;;3.40;0.90;;;2.50;99.90;;;0.76;100.00;102113.69;4988405;28;20050;-81
2023/02/04 00:35:33;;;;;;;4.05;0.80;;;2.60;99.90;;;0.76;100.00;102127.50;4920442;28;20117;-82
2023/02/04 00:38:06;;;;;;;4.97;0.82;;;2.50;99.90;;;0.72;100.00;102132.63;4958987;28;20060;-83
2023/02/04 00:40:32;;;;;;;5.75;0.60;;;2.50;99.90;;;0.70;100.00;102144.69;4924588;28;20077;-83
2023/02/04 00:42:58;;;;;;;2.08;0.57;;;2.50;99.90;;;0.71;100.00;102146.44;4931280;28;20044;-83
2023/02/04 00:45:53;;;;;;;3.47;0.60;;;2.50;99.90;;;0.70;100.00;102149.88;4929333;28;20100;-83
2023/02/04 00:48:19;;;;;;;6.72;1.00;;;2.50;99.90;;;0.67;100.00;102155.00;4964916;28;20517;-83
2023/02/04 00:50:45;;;;;;;1.38;0.40;;;2.40;99.90;;;0.67;100.00;102171.44;4949774;28;20120;-82
2023/02/04 00:53:17;;;;;;;7.05;0.70;;;2.40;99.90;;;0.67;100.00;102179.22;4927558;28;20050;-81
2023/02/04 00:55:43;;;;;;;4.28;0.65;;;2.40;99.90;;;0.65;100.00;102180.03;4967187;23;20574;-81
2023/02/04 00:58:09;;;;;;;7.32;0.93;;;2.40;99.90;;;0.63;100.00;102186.88;4909118;28;20132;-81
2023/02/04 01:00:34;;;;;;;3.90;0.50;;;2.40;99.90;;;0.64;100.00;102191.25;4909987;28;20104;-83
2023/02/04 01:03:00;;;;;;;12.52;0.70;;;2.40;99.90;;;0.58;100.00;102210.16;4935002;28;20038;-81
2023/02/04 01:05:35;;;;;;;8.77;0.80;;;2.40;99.90;;;0.57;100.00;102206.69;4919338;28;20110;-83
2023/02/04 01:08:00;;;;;;;5.25;0.65;;;2.40;99.90;;;0.52;100.00;102215.22;4898120;28;20507;-83
2023/02/04 01:10:27;;;;;;;6.05;0.93;;;2.30;99.90;;;0.51;100.00;102229.91;4918142;28;20053;-83
2023/02/04 01:12:53;;;;;;;7.57;0.90;;;2.30;99.90;;;0.53;100.00;102235.97;4937986;28;20530;-82
2023/02/04 01:15:26;;;;;;;6.10;0.60;;;2.30;99.90;;;0.53;100.00;102245.47;4951038;23;20041;-83
2023/02/04 01:17:52;;;;;;;4.90;1.00;;;2.30;99.90;;;0.54;100.00;102253.31;4975967;28;20034;-83
2023/02/04 01:20:21;;;;;;;8.68;1.05;;;2.30;99.90;;;0.53;100.00;102253.25;4927780;28;20057;-82
2023/02/04 01:22:55;;;;;;;2.63;0.88;;;2.30;99.90;;;0.53;100.00;102267.09;4919721;28;20084;-81
2023/02/04 01:25:24;;;;;;;6.13;0.70;;;;;;;0.67;100.00;102275.16;4946410;28;20033;-81
2023/02/04 01:27:57;;;;;;;4.43;0.70;;;2.50;99.90;;;0.75;100.00;102277.88;4955032;28;20175;-82
2023/02/04 01:30:23;;;;;;;10.82;1.58;;;2.50;99.90;;;0.80;100.00;102294.41;4931524;28;20037;-83
2023/02/04 01:32:48;;;;;;;7.72;0.85;;;2.50;99.90;;;0.82;100.00;102295.28;4918624;28;20429;-82
2023/02/04 01:35:14;;;;;;;5.20;0.77;;;2.50;99.90;;;0.79;100.00;102300.41;4935191;28;20045;-80
2023/02/04 01:37:47;;;;;;;8.85;0.90;;;2.60;99.90;;;0.82;100.00;102305.66;4944166;28;20050;-82
2023/02/04 01:40:13;;;;;;;4.22;0.60;;;2.60;99.90;;;0.84;100.00;102311.75;4886449;28;20056;-82
2023/02/04 01:42:40;;;;;;;4.93;0.68;;;;;;;0.87;100.00;102329.97;4904315;28;20043;-83
2023/02/04 01:45:06;;;;;;;5.78;0.52;;;2.60;99.90;;;0.85;100.00;102342.03;4937078;28;20045;-81
2023/02/04 01:47:33;;;;;;;3.50;0.55;;;2.60;99.90;;;0.76;100.00;102347.06;4965150;28;20051;-82
2023/02/04 01:50:12;;;;;;;1.13;0.35;;;2.50;99.90;;;0.65;100.00;102343.34;4955195;28;20061;-82
2023/02/04 01:52:44;;;;;;;3.30;0.50;;;2.50;99.90;;;0.67;100.00;102354.63;4965168;28;20094;-81
2023/02/04 01:55:18;;;;;;;2.55;0.30;;;2.50;99.90;;;0.59;100.00;102354.47;4936602;28;20058;-81
2023/02/04 01:57:57;;;;;;;0.98;0.38;;;2.40;99.90;;;0.48;100.00;102362.03;4972071;28;20061;-82
2023/02/04 02:00:32;;;;;;;4.68;0.50;;;2.20;99.90;;;0.32;100.00;102354.75;4931851;28;20588;-83
2023/02/04 02:02:59;;;;;;;2.40;0.20;;;2.10;99.90;;;0.13;100.00;102362.13;4951647;28;20067;-82
2023/02/04 02:05:40;;;;;;;2.50;0.43;;;2.00;99.90;;;-0.02;100.00;102361.78;4955252;28;20044;-81
2023/02/04 02:08:14;;;;;;;3.15;0.20;;;1.90;99.90;;;-0.04;100.00;102377.28;4926740;28;20085;-82
2023/02/04 02:10:44;;;;;;;2.08;0.22;;;1.80;99.90;;;-0.07;100.00;102381.50;4936683;28;20046;-82
2023/02/04 02:13:16;;;;;;;5.47;0.45;;;1.80;99.90;;;-0.07;100.00;102391.88;4965953;28;20116;-82
2023/02/04 02:15:42;;;;;;;1.70;0.30;;;1.80;99.90;;;-0.14;100.00;102411.56;4950844;28;20099;-82
2023/02/04 02:18:09;;;;;;;3.38;0.50;;;1.80;99.90;;;-0.10;100.00;102403.03;4959395;28;20038;-80
2023/02/04 02:20:36;;;;;;;4.72;0.55;;;1.80;99.90;;;-0.07;100.00;102416.03;4970503;28;20133;-81
2023/02/04 02:23:25;;;;;;;6.75;0.40;;;1.80;99.90;;;-0.03;100.00;102415.28;4943088;28;20133;-83
2023/02/04 02:25:51;;;;;;;6.38;0.30;;;1.80;99.90;;;-0.01;100.00;102425.69;4957880;28;20042;-83
2023/02/04 02:28:21;;;;;;;2.10;0.57;;;1.80;99.90;;;-0.01;100.00;102421.38;4938156;28;20096;-81
2023/02/04 02:30:56;;;;;;;2.03;0.47;;;1.90;99.90;;;0.01;100.00;102436.09;4927262;28;20136;-80
2023/02/04 02:33:22;;;;;;;3.20;0.55;;;1.80;99.90;;;-0.07;100.00;102448.84;4921171;28;20506;-80
2023/02/04 02:35:48;;;;;;;2.65;0.50;;;1.80;99.90;;;-0.07;100.00;102454.00;4936324;28;20032;-81
2023/02/04 02:38:23;;;;;;;2.80;0.80;;;1.80;99.90;;;-0.04;100.00;102451.53;4926373;28;20042;-80
2023/02/04 02:40:51;;;;;;;7.22;0.93;;;1.70;99.90;;;-0.09;100.00;102453.09;4950323;28;20065;-83
2023/02/04 02:43:40;;;;;;;7.18;0.73;;;;;;;-0.07;100.00;102456.59;4929886;28;20676;-81
2023/02/04 02:46:06;;;;;;;2.90;0.40;;;1.70;99.90;;;-0.09;100.00;102466.03;4939875;28;20048;-80
2023/02/04 02:48:35;;;;;;;5.72;0.50;;;1.80;99.90;;;0.02;100.00;102474.94;4890158;28;20434;-82
2023/02/04 02:51:01;;;;;;;5.30;0.57;;;1.80;99.90;;;0.06;100.00;102473.31;4937595;28;20030;-82
2023/02/04 02:53:36;;;;;;;2.88;0.52;;;1.90;99.90;;;0.12;100.00;102476.94;4984547;28;20060;-82
2023/02/04 02:56:04;;;;;;;6.05;0.50;;;1.80;99.90;;;0.17;100.00;102477.06;4927379;28;20380;-82
2023/02/04 02:58:37;;;;;;;5.68;0.60;;;2.00;99.90;;;0.22;100.00;102490.09;4919763;28;20125;-82
2023/02/04 03:01:07;;;;;;;5.15;0.90;;;2.00;99.90;;;0.23;100.00;102490.16;4906109;28;20034;-82
2023/02/04 03:03:44;;;;;;;5.85;0.50;;;2.00;99.90;;;0.17;100.00;102490.91;4984640;28;20501;-83
2023/02/04 03:06:20;;;;;;;9.10;1.08;;;1.90;99.90;;;0.16;100.00;102496.91;4962179;28;20045;-82
2023/02/04 03:08:54;;;;;;;9.25;1.27;;;1.90;99.90;;;0.10;100.00;102509.69;4942927;28;20423;-81
2023/02/04 03:11:25;;;;;;;5.72;1.00;;;1.90;99.90;;;0.09;100.00;102504.50;4958755;28;20501;-81
2023/02/04 03:13:51;;;;;;;2.50;0.70;;;1.90;99.90;;;0.11;100.00;102521.84;4938671;28;20046;-83
2023/02/04 03:16:18;;;;;;;8.52;1.13;;;1.90;99.90;;;0.14;100.00;102526.22;4922312;28;20080;-80
2023/02/04 03:18:44;;;;;;;4.45;0.73;;;1.90;99.90;;;0.18;100.00;102528.91;4971870;28;20675;-81
2023/02/04 03:21:17;;;;;;;6.15;1.20;;;1.90;99.90;;;0.17;100.00;102536.63;4955388;28;20038;-81
2023/02/04 03:23:43;;;;;;;5.15;1.27;;;1.90;99.90;;;0.16;100.00;102548.72;4950281;28;20035;-82
2023/02/04 03:26:09;;;;;;;4.95;0.75;;;1.90;99.90;;;0.13;100.00;102546.06;4931153;28;20049;-82
2023/02/04 03:28:44;;;;;;;11.30;1.23;;;2.00;99.90;;;0.20;100.00;102560.91;4949118;28;20026;-81
2023/02/04 03:31:09;;;;;;;2.55;0.52;;;2.00;99.90;;;0.17;100.00;102567.72;4952509;28;20594;-82
2023/02/04 03:33:35;;;;;;;12.13;1.20;;;1.90;99.90;;;0.18;100.00;102564.31;4940008;28;20024;-80
2023/02/04 03:36:01;;;;;;;7.32;1.30;;;1.90;99.90;;;0.13;100.00;102574.56;4889723;28;20034;-82
2023/02/04 03:38:27;;;;;;;6.78;0.90;;;2.70;99.90;;;0.09;100.00;102580.50;4947041;28;20042;-82
2023/02/04 03:40:53;;;;;;;3.72;0.80;;;1.80;99.90;;;0.03;100.00;102588.09;4925974;28;20098;-82
2023/02/04 03:43:26;;;;;;;6.90;0.77;;;1.80;99.90;;;0.02;100.00;102591.50;4947171;28;20091;-82
2023/02/04 03:45:52;;;;;;;6.93;0.80;;;1.80;99.90;;;0.01;100.00;102602.72;4933772;28;20070;-83
2023/02/04 03:48:18;;;;;;;3.30;0.60;;;1.70;99.90;;;0.02;100.00;102595.81;4939176;28;20039;-82
2023/02/04 03:50:44;;;;;;;5.38;1.05;;;1.80;99.90;;;0.11;100.00;102615.09;4977844;28;20092;-82
2023/02/04 03:53:21;;;;;;;12.13;1.13;;;1.80;99.90;;;0.12;100.00;102626.31;4943926;28;20113;-82
2023/02/04 03:55:47;;;;;;;6.75;0.77;;;1.80;99.90;;;0.05;100.00;102627.00;4932511;28;20491;-83
2023/02/04 03:58:23;;;;;;;5.40;1.05;;;1.70;99.90;;;-0.05;100.00;102618.94;4934795;28;20046;-83
2023/02/04 04:00:48;;;;;;;;;;;1.60;99.90;;;-0.23;100.00;102621.03;4959578;28;20080;-83
2023/02/04 04:03:14;;;;;;;5.50;0.60;;;1.50;99.90;;;-0.36;100.00;102642.25;4987388;28;19929;-82
2023/02/04 04:05:40;;;;;;;7.55;0.70;;;1.40;99.90;;;-0.56;100.00;102644.22;4958227;28;20337;-83
2023/02/04 04:08:06;;;;;;;10.85;1.20;;;1.20;99.90;;;-0.76;100.00;102643.63;4938400;28;20066;-83
2023/02/04 04:10:40;;;;;;;3.45;0.55;;;1.00;99.90;;;-0.95;100.00;102660.28;4901461;28;20034;-82
2023/02/04 04:13:06;;;;;;;4.90;0.80;;;0.80;99.90;;;-1.09;100.00;102665.00;4914782;28;20600;-83
2023/02/04 04:15:32;;;;;;;8.18;0.80;;;0.70;99.90;;;-1.18;100.00;102672.47;4942676;28;20038;-81
2023/02/04 04:18:06;;;;;;;8.25;1.10;;;0.60;99.90;;;-1.24;100.00;102674.00;4938162;28;20056;-82
2023/02/04 04:20:31;;;;;;;6.28;1.00;;;0.60;99.90;;;-1.26;100.00;102677.38;4923594;28;20031;-83
2023/02/04 04:22:57;;;;;;;6.00;1.20;;;0.50;99.90;;;-1.37;100.00;102676.16;4910910;28;20031;-83
2023/02/04 04:25:23;;;;;;;7.53;0.82;;;0.40;99.90;;;-1.47;100.00;102688.75;4924288;28;20102;-83
2023/02/04 04:27:49;;;;;;;6.13;0.85;;;0.30;99.90;;;-1.50;100.00;102687.75;4986194;28;20037;-82
2023/02/04 04:30:24;;;;;;;6.10;0.63;;;0.30;99.90;;;-1.51;100.00;102699.81;4924058;28;20038;-83
2023/02/04 04:32:50;;;;;;;7.07;0.85;;;0.20;99.90;;;-1.58;100.00;102696.94;4907169;28;20034;-81
2023/02/04 04:35:16;;;;;;;5.38;0.93;;;0.20;99.90;;;-1.57;100.00;102703.88;4932633;28;21522;-83
2023/02/04 04:37:42;;;;;;;4.13;1.02;;;0.20;99.90;;;-1.58;100.00;102713.31;4961612;28;20049;-82
2023/02/04 04:40:12;;;;;;;3.42;0.80;;;0.20;99.90;;;-1.64;100.00;102723.47;4942689;28;20037;-81
2023/02/04 04:42:38;;;;;;;6.15;0.70;;;0.10;99.90;;;-1.73;100.00;102726.59;4930261;28;20054;-81
2023/02/04 04:45:09;;;;;;;5.65;0.82;;;0.10;99.90;;;-1.78;100.00;102735.84;4897837;28;20949;-82
2023/02/04 04:47:43;;;;;;;7.15;0.80;;;0.00;99.90;;;-1.82;100.00;102746.03;4904743;28;20043;-81
2023/02/04 04:50:09;;;;;;;7.28;0.80;;;0.00;99.90;;;-1.84;100.00;102755.41;4931771;28;20053;-80
2023/02/04 04:52:35;;;;;;;6.53;0.80;;;0.00;99.90;;;-1.87;100.00;102761.34;4986631;28;20041;-79
2023/02/04 04:55:04;;;;;;;4.90;0.95;;;0.00;99.90;;;-1.87;100.00;102769.97;4945762;28;20411;-82
2023/02/04 04:57:32;;;;;;;6.95;0.90;;;0.00;99.90;;;-1.86;100.00;102779.50;4936332;28;20030;-82
2023/02/04 04:59:58;;;;;;;5.85;0.85;;;0.00;99.90;;;-1.82;100.00;102780.47;4946838;28;20080;-81
2023/02/04 05:02:24;;;;;;;4.78;0.80;;;0.00;99.90;;;-1.76;100.00;102780.69;4958787;28;20037;-81
2023/02/04 05:04:49;;;;;;;6.72;0.77;;;0.00;99.90;;;-1.74;100.00;102788.53;4973464;28;20033;-81
2023/02/04 05:07:15;;;;;;;2.33;0.70;;;0.00;99.90;;;-1.76;100.00;102801.38;4942999;28;20026;-80
2023/02/04 05:09:41;;;;;;;5.45;0.70;;;0.00;99.90;;;-1.79;100.00;102793.50;4960581;28;20049;-81
2023/02/04 05:12:07;;;;;;;3.72;0.80;;;0.00;99.90;;;-1.82;100.00;102811.47;4944786;28;20037;-81
2023/02/04 05:14:33;;;;;;;5.78;0.70;;;0.00;99.90;;;-1.84;100.00;102812.22;4965128;28;20112;-80
2023/02/04 05:17:01;;;;;;;6.38;1.00;;;0.00;99.90;;;-1.79;100.00;102829.69;4935936;28;20105;-80
2023/02/04 05:19:27;;;;;;;5.25;1.05;;;0.00;99.90;;;-1.79;100.00;102826.19;4954506;28;20133;-79
2023/02/04 05:21:52;;;;;;;4.57;1.58;;;0.10;99.90;;;-1.78;100.00;102828.84;4977550;28;20038;-80
2023/02/04 05:24:18;;;;;;;9.20;0.70;;;0.00;99.90;;;-1.83;100.00;102834.66;4966998;28;20027;-79
2023/02/04 05:26:44;;;;;;;6.07;0.70;;;0.00;99.90;;;-1.87;100.00;102842.28;4948358;28;20037;-80
2023/02/04 05:29:10;;;;;;;5.32;1.05;;;0.00;99.90;;;-1.89;100.00;102838.75;4982196;28;20117;-79
2023/02/04 05:31:39;;;;;;;1.88;0.57;;;;;;;-1.89;100.00;102850.78;4937089;28;20050;-78
2023/02/04 05:34:05;;;;;;;3.17;0.73;;;0.00;99.90;;;-1.83;100.00;102860.50;4969970;28;20044;-79
2023/02/04 05:36:31;;;;;;;4.80;0.70;;;0.00;99.90;;;-1.77;100.00;102865.88;4981635;28;20039;-80
2023/02/04 05:38:56;;;;;;;4.90;0.73;;;0.10;99.90;;;-1.72;100.00;102867.81;4945849;28;20181;-79
2023/02/04 05:41:25;;;;;;;3.17;0.70;;;0.10;99.90;;;-1.65;100.00;102876.69;4946535;28;20109;-78
2023/02/04 05:44:00;;;;;;;7.03;1.15;;;0.20;99.90;;;-1.60;100.00;102885.47;4930355;28;20052;-80
2023/02/04 05:46:26;;;;;;;3.85;1.45;;;0.10;99.90;;;-1.63;100.00;102887.94;4965073;28;20038;-79
2023/02/04 05:48:54;;;;;;;8.02;0.73;;;;;;;-1.70;100.00;102886.84;4946896;28;20057;-80
2023/02/04 05:51:25;;;;;;;5.22;0.60;;;0.10;99.90;;;-1.82;100.00;102893.22;4941675;28;20042;-80
2023/02/04 05:53:51;;;;;;;7.75;0.63;;;0.00;99.90;;;-1.89;100.00;102898.16;4945757;28;20464;-80
2023/02/04 05:56:17;;;;;;;7.85;0.80;;;-0.10;99.90;;;-1.95;100.00;102908.22;4960706;28;20092;-79
2023/02/04 05:58:43;;;;;;;4.32;0.77;;;-0.10;99.90;;;-1.98;100.00;102915.00;4945692;28;20613;-78
2023/02/04 06:01:09;;;;;;;4.10;0.70;;;-0.10;99.90;;;-1.97;100.00;102917.63;4945632;28;20048;-79
2023/02/04 06:03:37;;;;;;;3.65;0.70;;;-0.10;99.90;;;-1.91;100.00;102920.44;4950501;28;20040;-80
2023/02/04 06:06:06;;;;;;;5.95;0.88;;;;;;;-1.84;100.00;102925.84;4939104;28;20049;-80
2023/02/04 06:08:32;;;;;;;3.92;0.70;;;0.00;99.90;;;-1.83;100.00;102925.06;4972887;28;20037;-80
2023/02/04 06:10:57;;;;;;;5.35;0.68;;;0.00;99.90;;;-1.83;100.00;102925.06;4961286;28;20110;-80
2023/02/04 06:13:23;;;;;;;1.20;0.60;;;0.00;99.90;;;-1.83;100.00;102923.34;4972504;28;20506;-80
2023/02/04 06:15:49;;;;;;;3.58;0.70;;;0.00;99.90;;;-1.78;100.00;102926.97;4955411;28;20052;-81
2023/02/04 06:18:24;;;;;;;1.90;0.70;;;0.10;99.90;;;-1.73;100.00;102929.75;4994610;28;20067;-81
2023/02/04 06:20:50;;;;;;;5.40;1.15;;;0.10;99.90;;;-1.73;100.00;102932.31;4993668;28;20425;-81
2023/02/04 06:23:15;;;;;;;3.90;0.60;;;0.10;99.90;;;-1.70;100.00;102933.34;4958305;28;20029;-79
2023/02/04 06:25:41;;;;;;;5.50;0.77;;;0.20;99.90;;;-1.66;100.00;102924.88;4962991;28;20676;-81
2023/02/04 06:28:14;;;;;;;8.10;0.98;;;0.20;99.90;;;-1.62;100.00;102935.31;4951779;28;20025;-81
2023/02/04 06:30:40;;;;;;;2.45;0.90;;;0.20;99.90;;;-1.62;100.00;102944.00;4980912;28;20092;-80
2023/02/04 06:33:06;;;;;;;5.38;0.82;;;0.20;99.90;;;-1.63;100.00;102929.28;4933025;28;20071;-81
2023/02/04 06:35:32;;;;;;;6.20;1.00;;;0.20;99.90;;;-1.64;100.00;102940.47;4934852;28;20037;-81
2023/02/04 06:37:57;;;;;;;10.52;1.10;;;0.20;99.90;;;-1.66;100.00;102937.81;4931346;28;20490;-80
2023/02/04 06:40:25;;;;;;;6.18;1.33;;;0.20;99.90;;;-1.67;100.00;102940.31;4891048;28;20080;-82
2023/02/04 06:42:53;;;;;;;7.55;0.80;;;0.20;99.90;;;-1.67;100.00;102954.09;4938828;28;20045;-82
2023/02/04 06:45:22;;;;;;;6.80;1.75;;;0.10;99.90;;;-1.68;100.00;102965.28;4973130;28;20088;-83
2023/02/04 06:47:47;;;;;;;8.27;1.02;;;0.20;99.90;;;-1.66;100.00;102960.19;4962279;28;20735;-85
2023/02/04 06:50:22;;;;;;;4.70;0.68;;;0.20;99.90;;;-1.60;100.00;102967.28;4949592;28;20052;-84
2023/02/04 06:52:48;;;;;;;7.50;0.80;;;0.20;99.90;;;-1.53;100.00;102969.31;4897424;28;20038;-83
2023/02/04 06:55:16;;;;;;;3.92;0.95;;;;;;;-1.48;100.00;102973.81;4906626;28;20607;-85
2023/02/04 06:57:51;;;;;;;3.85;1.00;;;0.40;99.90;;;-1.42;100.00;102968.00;4971221;28;20048;-84
2023/02/04 07:00:17;;;;;;;8.38;1.30;;;0.40;99.90;;;-1.35;100.00;102982.03;4960146;23;20074;-81
2023/02/04 07:02:44;;;;;;;6.35;0.80;;;0.40;99.90;;;-1.30;100.00;102989.13;4980069;28;20030;-82
2023/02/04 07:05:10;;;;;;;7.00;1.20;;;0.50;99.90;;;-1.26;100.00;102993.59;4989401;28;20446;-83
2023/02/04 07:07:43;;;;;;;7.60;1.05;;;0.50;99.90;;;-1.25;100.00;102986.75;4976141;28;20034;-82
2023/02/04 07:10:10;;;;;;;5.35;1.25;;;0.50;99.90;;;-1.30;100.00;102996.88;4960006;28;20029;-81
2023/02/04 07:12:36;;;;;;;5.93;1.33;;;0.40;99.90;;;-1.34;100.00;103001.88;4956007;28;20069;-83
2023/02/04 07:15:01;;;;;;;7.13;0.80;;;0.40;99.90;;;-1.50;100.00;103003.00;4934806;28;20030;-81
2023/02/04 07:17:32;;;;;;;5.50;0.90;;;0.30;99.90;;;-1.64;100.00;103007.63;4955837;28;20052;-84
2023/02/04 07:19:58;;;;;;;5.85;1.00;;;0.20;99.90;;;-1.70;100.00;103017.72;4942376;28;20083;-81
2023/02/04 07:22:27;;;;;;;6.28;1.67;;;0.10;99.90;;;-1.72;100.00;103020.22;4951931;28;20038;-83
2023/02/04 07:24:52;;;;;;;5.43;1.63;;;0.10;99.90;;;-1.74;100.00;103018.41;4971742;28;20033;-83
2023/02/04 07:27:24;;;;;;;6.53;1.13;;;0.10;99.90;;;-1.74;100.00;103027.03;5003467;28;20408;-87
2023/02/04 07:29:49;;;;;;;1.95;0.90;;;0.00;99.90;;;-1.72;100.00;103040.00;4871412;28;20039;-83
2023/02/04 07:32:18;;;;;;;5.85;1.13;;;0.00;99.90;;;-1.73;100.00;103040.81;4938995;28;20098;-84
2023/02/04 07:34:52;;;;;;;6.00;1.10;;;0.00;99.90;;;-1.74;100.00;103047.69;4924399;28;20055;-84
2023/02/04 07:37:19;;;;;;;5.97;1.45;;;0.00;99.90;;;-1.81;100.00;103050.84;4913426;28;20052;-83
2023/02/04 07:39:47;;;;;;;6.55;1.13;;;-0.10;99.90;;;-1.80;100.00;103067.22;4951909;28;20034;-85
2023/02/04 07:42:20;;;;;;;4.45;0.93;;;-0.10;99.90;;;-1.84;100.00;103066.19;4999337;28;20030;-84
2023/02/04 07:44:46;;;;;;;10.73;0.90;;;-0.10;99.90;;;-1.88;100.00;103072.94;4973206;28;20084;-85
2023/02/04 07:47:12;;;;;;;5.22;0.75;;;-0.10;99.90;;;-1.90;100.00;103077.16;4931362;28;20465;-85
2023/02/04 07:49:38;;;;;;;5.10;1.13;;;;;;;-1.91;100.00;103083.13;4917129;28;20461;-85
2023/02/04 07:52:04;;;;;;;6.43;1.10;;;-0.10;99.90;;;-1.86;100.00;103089.41;4930804;28;20046;-85
2023/02/04 07:54:30;;;;;;;4.20;0.80;;;0.00;99.90;;;-0.86;100.00;103110.66;4913127;28;20030;-85
2023/02/04 07:57:06;;;;;;;7.82;1.27;;;0.80;99.90;;;3.15;100.00;103129.81;4915591;28;20039;-86
2023/02/04 07:59:31;;;;;;;6.05;1.40;;;1.70;99.90;;;2.57;95.05;103122.41;4944570;28;20030;-85
2023/02/04 08:01:57;;;;;;;13.77;1.45;;;2.00;99.90;;;1.05;92.56;103114.69;4945941;28;20114;-86
2023/02/04 08:04:29;;;;;;;1.50;0.90;;;1.90;99.90;;;0.38;93.59;103111.66;4954439;28;20044;-85
2023/02/04 08:06:57;;;;;;;5.38;1.17;;;1.70;99.90;;;-0.01;95.69;103110.34;4896529;28;20038;-86
2023/02/04 08:09:25;;;;;;;2.38;0.70;;;1.50;99.90;;;-0.28;97.61;103125.78;4906312;28;20049;-85
2023/02/04 08:12:00;;;;;;;6.40;1.10;;;1.40;99.90;;;-0.35;99.65;103123.75;4883514;28;20058;-85
2023/02/04 08:14:26;;;;;;;5.72;1.00;;;;;;;-0.26;100.00;103125.81;4896072;28;20034;-85
2023/02/04 08:16:59;;;;;;;3.38;0.75;;;1.50;99.90;;;-0.09;100.00;103126.44;4947656;28;20538;-85
2023/02/04 08:19:28;;;;;;;2.72;0.73;;;1.60;99.90;;;0.06;100.00;103128.69;4907513;28;20069;-85
2023/02/04 08:21:57;;;;;;;4.32;1.13;;;;;;;0.00;100.00;103137.13;4879788;28;20153;-86
2023/02/04 08:24:29;;;;;;;2.50;0.70;;;1.60;99.90;;;-0.01;100.00;103144.00;4914266;28;20042;-86
2023/02/04 08:26:58;;;;;;;7.47;1.00;;;1.70;99.90;;;0.10;100.00;103146.09;4896506;28;20035;-84
2023/02/04 08:29:49;;;;;;;7.03;1.23;;;;;;;0.19;100.00;103155.09;4898869;28;20066;-85
2023/02/04 08:32:18;;;;;;;5.97;0.90;;;1.80;99.90;;;0.24;100.00;103160.44;4934097;28;20049;-86
2023/02/04 08:34:59;;;;;;;4.88;0.70;;;1.80;99.90;;;0.35;100.00;103163.41;4923654;28;20070;-85
2023/02/04 08:37:25;;;;;;;6.85;0.75;;;1.90;99.90;;;0.48;100.00;103167.31;4872294;28;20243;-86
2023/02/04 08:40:00;;;;;;;1.25;0.40;;;2.00;99.90;;;0.53;100.00;103168.31;4897494;28;20057;-84
2023/02/04 08:42:29;;;;;;;4.47;0.80;;;;;;;0.50;100.00;103168.25;4895321;28;20039;-84
2023/02/04 08:45:06;;;;;;;3.67;0.65;;;2.10;99.90;;;0.59;100.00;103184.09;4932085;28;20045;-84
2023/02/04 08:47:39;;;;;;;6.13;0.77;;;2.10;99.90;;;0.62;99.60;103173.81;4913574;28;20530;-83
2023/02/04 08:50:09;;;;;;;1.80;0.38;;;;;;;0.65;99.17;103180.81;4914073;28;20542;-82
2023/02/04 08:52:35;;;;;;;1.55;0.50;;;;;;;0.67;98.27;103187.84;4943531;28;20105;-82
2023/02/04 08:55:01;;;;;;;1.88;0.55;;;2.30;99.90;;;0.72;96.92;103182.81;4928729;28;20042;-81
2023/02/04 08:57:30;;;;;;;3.97;0.65;;;2.30;99.90;;;0.85;96.06;103194.47;4944839;28;20070;-81
2023/02/04 08:59:56;;;;;;;4.07;0.68;;;2.40;99.90;;;0.90;95.44;103198.97;4887160;28;20042;-81
2023/02/04 09:02:22;;;;;;;2.85;0.45;;;1.80;99.90;;;0.82;94.95;103197.81;4914266;28;20401;-81
2023/02/04 09:04:48;;;;;;;2.00;0.60;;;2.30;99.90;;;0.73;93.92;103195.78;4965895;28;20052;-81
2023/02/04 09:07:14;;;;;;;1.38;0.47;;;2.40;99.90;;;0.84;93.29;103197.88;4950041;28;20041;-80
2023/02/04 09:09:40;;;;;;;0.68;0.40;;;2.40;99.90;;;0.82;93.71;103203.00;4961094;28;21805;-79
2023/02/04 09:12:09;;;;;;;2.05;0.55;;;2.40;99.90;;;0.80;92.77;103210.75;4974155;28;20040;-80
2023/02/04 09:14:40;;;;;;;1.98;0.38;;;2.40;99.90;;;0.72;91.95;103206.16;4936406;28;20121;-80
2023/02/04 09:17:09;;;;;;;1.60;0.60;;;2.40;99.90;;;0.77;91.46;103221.00;4974065;28;20519;-80
2023/02/04 09:19:47;;;;;;;3.17;0.80;;;2.30;99.90;;;0.65;91.48;103219.72;4942013;28;20057;-80
2023/02/04 09:22:14;;;;;;;4.03;0.90;;;2.30;99.90;;;0.80;91.91;103220.25;4973381;28;20030;-79
2023/02/04 09:24:45;;;;;;;6.75;1.08;;;2.50;99.90;;;1.09;92.74;103218.59;4953337;28;20468;-79
2023/02/04 09:27:11;;;;;;;1.92;0.45;;;2.50;99.90;;;1.01;91.65;103226.13;4933855;28;20030;-79
2023/02/04 09:29:37;;;;;;;0.88;0.30;;;2.60;99.90;;;0.87;91.17;103229.13;4963823;28;20044;-79
2023/02/04 09:32:05;;;;;;;2.55;0.30;;;;;;;0.75;90.15;103225.25;4942536;28;20038;-78
2023/02/04 09:34:31;;;;;;;1.50;0.40;;;2.50;99.90;;;0.83;89.92;103241.09;4983275;28;20030;-79
2023/02/04 09:37:00;;;;;;;1.45;0.40;;;2.50;99.90;;;0.91;89.34;103244.84;4911329;28;20046;-78
2023/02/04 09:39:29;;;;;;;2.85;0.60;;;2.60;99.90;;;1.08;90.09;103247.09;4926816;28;20078;-78
2023/02/04 09:41:59;;;;;;;3.53;0.60;;;2.70;99.90;;;1.08;89.91;103250.59;4949084;28;20366;-79
2023/02/04 09:44:29;;;;;;;2.13;0.50;;;2.80;99.90;;;1.27;89.88;103253.78;4955526;28;20521;-78
2023/02/04 09:46:59;;;;;;;1.20;0.45;;;2.80;99.90;;;1.30;88.99;103259.09;4988162;28;20050;-78
2023/02/04 09:49:34;;;;;;;1.30;0.40;;;2.80;99.90;;;1.16;88.73;103251.69;4969441;28;20029;-78
2023/02/04 09:52:08;;;;;;;4.15;0.70;;;2.90;99.90;;;1.24;89.63;103262.34;4978260;28;20465;-78
2023/02/04 09:54:37;;;;;;;1.70;0.30;;;2.80;99.90;;;1.19;88.91;103267.41;4993822;28;20061;-78
2023/02/04 09:57:17;;;;;;;2.35;0.75;;;2.80;99.90;;;1.20;88.17;103268.28;4944918;28;20034;-77
2023/02/04 09:59:44;;;;;;;10.10;0.60;;;2.80;99.90;;;1.09;87.82;103261.84;4973587;28;20027;-78
2023/02/04 10:02:30;;;;;;;2.60;0.50;;;2.70;99.90;;;0.91;87.89;103273.38;4958233;28;20034;-78
2023/02/04 10:05:00;;;;;;;3.15;0.55;;;2.60;99.90;;;0.94;88.60;103273.47;4946315;28;20377;-78
2023/02/04 10:07:27;;;;;;;2.25;0.52;;;2.80;99.90;;;1.11;89.00;103268.84;4967175;28;20210;-78
2023/02/04 10:09:59;;;;;;;1.95;0.40;;;2.70;99.90;;;0.91;87.10;103278.56;4961624;28;20454;-77
2023/02/04 10:12:33;;;;;;;1.00;0.38;;;2.70;99.90;;;0.95;86.79;103280.44;4941241;28;20121;-78
2023/02/04 10:15:09;;;;;;;0.85;0.30;;;2.80;99.90;;;0.97;86.53;103270.09;4988518;28;20030;-78
2023/02/04 10:17:38;;;;;;;2.10;0.57;;;2.80;99.90;;;0.95;86.17;103270.06;4959085;28;20063;-77
2023/02/04 10:20:10;;;;;;;1.65;0.40;;;2.70;99.90;;;0.90;84.86;103275.91;4953304;28;20042;-77
2023/02/04 10:22:40;;;;;;;0.40;0.28;;;2.60;99.90;;;0.84;84.18;103278.28;4927650;28;20481;-78
2023/02/04 10:25:18;;;;;;;2.78;0.45;;;2.60;99.90;;;0.83;83.92;103274.81;4988224;28;20036;-78
2023/02/04 10:27:57;;;;;;;1.85;0.30;;;2.60;99.90;;;0.90;83.79;103279.38;4976823;28;20635;-77